sensor_id;sensor_type;location;lat;lon;timestamp;P1;durP1;ratioP1;P2;durP2;ratioP2
39404;SDS011;25121;51.090;17.038;2023-05-21T00:00:40;34.30;;;25.90;;
39404;SDS011;25121;51.090;17.038;2023-05-21T00:02:04;33.45;;;25.48;;
39404;SDS011;25121;51.090;17.038;2023-05-21T00:03:28;35.53;;;26.55;;
39404;SDS011;25121;51.090;17.038;2023-05-21T00:05:33;37.20;;;25.55;;
39404;SDS011;25121;51.090;17.038;2023-05-21T00:08:47;36.63;;;24.75;;
39404;SDS011;25121;51.090;17.038;2023-05-21T00:10:09;35.97;;;24.88;;
39404;SDS011;25121;51.090;17.038;2023-05-21T00:11:32;32.20;;;23.80;;
39404;SDS011;25121;51.090;17.038;2023-05-21T00:12:54;32.55;;;25.13;;
39404;SDS011;25121;51.090;17.038;2023-05-21T00:14:16;31.23;;;25.15;;
39404;SDS011;25121;51.090;17.038;2023-05-21T00:15:37;33.30;;;25.45;;
39404;SDS011;25121;51.090;17.038;2023-05-21T00:16:59;30.90;;;24.35;;
39404;SDS011;25121;51.090;17.038;2023-05-21T00:18:23;36.38;;;24.92;;
39404;SDS011;25121;51.090;17.038;2023-05-21T00:20:29;36.65;;;24.38;;
39404;SDS011;25121;51.090;17.038;2023-05-21T00:21:56;34.15;;;25.75;;
39404;SDS011;25121;51.090;17.038;2023-05-21T00:23:39;36.22;;;24.27;;
39404;SDS011;25121;51.090;17.038;2023-05-21T00:25:06;32.22;;;25.33;;
39404;SDS011;25121;51.090;17.038;2023-05-21T00:26:34;33.90;;;24.83;;
39404;SDS011;25121;51.090;17.038;2023-05-21T00:27:59;33.25;;;25.35;;
39404;SDS011;25121;51.090;17.038;2023-05-21T00:29:22;39.30;;;26.17;;
39404;SDS011;25121;51.090;17.038;2023-05-21T00:30:49;33.13;;;25.45;;
39404;SDS011;25121;51.090;17.038;2023-05-21T00:32:18;34.97;;;26.27;;
39404;SDS011;25121;51.090;17.038;2023-05-21T00:33:54;40.78;;;26.85;;
39404;SDS011;25121;51.090;17.038;2023-05-21T00:35:25;35.22;;;26.35;;
39404;SDS011;25121;51.090;17.038;2023-05-21T00:36:59;30.30;;;23.95;;
39404;SDS011;25121;51.090;17.038;2023-05-21T00:38:36;35.58;;;25.63;;
39404;SDS011;25121;51.090;17.038;2023-05-21T00:40:00;41.58;;;26.27;;
39404;SDS011;25121;51.090;17.038;2023-05-21T00:41:24;36.22;;;27.27;;
39404;SDS011;25121;51.090;17.038;2023-05-21T00:42:52;30.60;;;23.35;;
39404;SDS011;25121;51.090;17.038;2023-05-21T00:44:27;34.83;;;25.38;;
39404;SDS011;25121;51.090;17.038;2023-05-21T00:45:53;34.95;;;24.92;;
39404;SDS011;25121;51.090;17.038;2023-05-21T00:47:21;41.35;;;25.30;;
39404;SDS011;25121;51.090;17.038;2023-05-21T00:48:44;34.35;;;24.58;;
39404;SDS011;25121;51.090;17.038;2023-05-21T00:50:07;36.85;;;24.70;;
39404;SDS011;25121;51.090;17.038;2023-05-21T00:51:30;37.28;;;25.75;;
39404;SDS011;25121;51.090;17.038;2023-05-21T00:53:00;34.95;;;25.40;;
39404;SDS011;25121;51.090;17.038;2023-05-21T00:54:41;37.17;;;25.38;;
39404;SDS011;25121;51.090;17.038;2023-05-21T00:56:16;35.38;;;24.55;;
39404;SDS011;25121;51.090;17.038;2023-05-21T00:57:41;34.40;;;26.25;;
39404;SDS011;25121;51.090;17.038;2023-05-21T00:59:06;32.35;;;24.90;;
39404;SDS011;25121;51.090;17.038;2023-05-21T01:00:31;39.50;;;26.20;;
39404;SDS011;25121;51.090;17.038;2023-05-21T01:01:54;33.28;;;26.20;;
39404;SDS011;25121;51.090;17.038;2023-05-21T01:03:23;33.08;;;25.52;;
39404;SDS011;25121;51.090;17.038;2023-05-21T01:04:46;36.65;;;26.85;;
39404;SDS011;25121;51.090;17.038;2023-05-21T01:06:08;31.20;;;25.25;;
39404;SDS011;25121;51.090;17.038;2023-05-21T01:07:42;34.08;;;26.00;;
39404;SDS011;25121;51.090;17.038;2023-05-21T01:09:06;33.08;;;25.25;;
39404;SDS011;25121;51.090;17.038;2023-05-21T01:10:35;38.22;;;24.85;;
39404;SDS011;25121;51.090;17.038;2023-05-21T01:11:58;35.15;;;24.60;;
39404;SDS011;25121;51.090;17.038;2023-05-21T01:13:20;36.85;;;24.95;;
39404;SDS011;25121;51.090;17.038;2023-05-21T01:14:43;41.47;;;24.75;;
39404;SDS011;25121;51.090;17.038;2023-05-21T01:16:06;35.42;;;24.90;;
39404;SDS011;25121;51.090;17.038;2023-05-21T01:17:28;33.97;;;25.48;;
39404;SDS011;25121;51.090;17.038;2023-05-21T01:18:51;34.72;;;24.42;;
39404;SDS011;25121;51.090;17.038;2023-05-21T01:20:17;32.63;;;25.42;;
39404;SDS011;25121;51.090;17.038;2023-05-21T01:21:55;31.15;;;25.67;;
39404;SDS011;25121;51.090;17.038;2023-05-21T01:23:23;37.20;;;24.88;;
39404;SDS011;25121;51.090;17.038;2023-05-21T01:24:48;40.50;;;24.75;;
39404;SDS011;25121;51.090;17.038;2023-05-21T01:26:10;39.63;;;25.50;;
39404;SDS011;25121;51.090;17.038;2023-05-21T01:27:33;36.80;;;26.33;;
39404;SDS011;25121;51.090;17.038;2023-05-21T01:28:57;37.95;;;25.25;;
39404;SDS011;25121;51.090;17.038;2023-05-21T01:30:24;36.20;;;25.02;;
39404;SDS011;25121;51.090;17.038;2023-05-21T01:32:03;33.55;;;24.27;;
39404;SDS011;25121;51.090;17.038;2023-05-21T01:33:32;38.95;;;25.02;;
39404;SDS011;25121;51.090;17.038;2023-05-21T01:35:01;36.65;;;25.38;;
39404;SDS011;25121;51.090;17.038;2023-05-21T01:36:30;34.42;;;26.17;;
39404;SDS011;25121;51.090;17.038;2023-05-21T01:38:02;34.85;;;25.55;;
39404;SDS011;25121;51.090;17.038;2023-05-21T01:39:31;33.97;;;25.63;;
39404;SDS011;25121;51.090;17.038;2023-05-21T01:41:02;34.55;;;25.83;;
39404;SDS011;25121;51.090;17.038;2023-05-21T01:42:28;31.70;;;23.77;;
39404;SDS011;25121;51.090;17.038;2023-05-21T01:43:54;39.35;;;25.90;;
39404;SDS011;25121;51.090;17.038;2023-05-21T01:45:18;32.70;;;25.25;;
39404;SDS011;25121;51.090;17.038;2023-05-21T01:46:43;31.65;;;24.73;;
39404;SDS011;25121;51.090;17.038;2023-05-21T01:48:05;32.65;;;25.92;;
39404;SDS011;25121;51.090;17.038;2023-05-21T01:49:28;31.30;;;25.20;;
39404;SDS011;25121;51.090;17.038;2023-05-21T01:50:51;33.83;;;25.48;;
39404;SDS011;25121;51.090;17.038;2023-05-21T01:52:15;36.58;;;26.48;;
39404;SDS011;25121;51.090;17.038;2023-05-21T01:53:42;38.80;;;24.77;;
39404;SDS011;25121;51.090;17.038;2023-05-21T01:56:30;37.83;;;24.63;;
39404;SDS011;25121;51.090;17.038;2023-05-21T01:58:13;35.13;;;24.10;;
39404;SDS011;25121;51.090;17.038;2023-05-21T01:59:36;37.83;;;26.40;;
39404;SDS011;25121;51.090;17.038;2023-05-21T02:00:58;38.42;;;25.05;;
39404;SDS011;25121;51.090;17.038;2023-05-21T02:02:33;35.03;;;25.33;;
39404;SDS011;25121;51.090;17.038;2023-05-21T02:04:12;32.47;;;23.15;;
39404;SDS011;25121;51.090;17.038;2023-05-21T02:07:16;32.07;;;23.17;;
39404;SDS011;25121;51.090;17.038;2023-05-21T02:10:12;30.02;;;24.15;;
39404;SDS011;25121;51.090;17.038;2023-05-21T02:11:39;32.58;;;24.35;;
39404;SDS011;25121;51.090;17.038;2023-05-21T02:13:00;34.30;;;25.43;;
39404;SDS011;25121;51.090;17.038;2023-05-21T02:14:23;33.55;;;24.52;;
39404;SDS011;25121;51.090;17.038;2023-05-21T02:17:25;32.00;;;22.60;;
39404;SDS011;25121;51.090;17.038;2023-05-21T02:18:50;36.85;;;23.63;;
39404;SDS011;25121;51.090;17.038;2023-05-21T02:20:17;32.22;;;23.75;;
39404;SDS011;25121;51.090;17.038;2023-05-21T02:21:38;34.97;;;23.90;;
39404;SDS011;25121;51.090;17.038;2023-05-21T02:23:01;36.65;;;24.70;;
39404;SDS011;25121;51.090;17.038;2023-05-21T02:24:23;34.50;;;24.40;;
39404;SDS011;25121;51.090;17.038;2023-05-21T02:25:49;33.42;;;23.65;;
39404;SDS011;25121;51.090;17.038;2023-05-21T02:27:17;37.08;;;25.38;;
39404;SDS011;25121;51.090;17.038;2023-05-21T02:28:44;34.55;;;23.90;;
39404;SDS011;25121;51.090;17.038;2023-05-21T02:30:06;30.42;;;23.52;;
39404;SDS011;25121;51.090;17.038;2023-05-21T02:31:52;30.55;;;22.30;;
39404;SDS011;25121;51.090;17.038;2023-05-21T02:33:14;36.50;;;24.17;;
39404;SDS011;25121;51.090;17.038;2023-05-21T02:35:02;35.30;;;24.05;;
39404;SDS011;25121;51.090;17.038;2023-05-21T02:36:25;31.60;;;23.05;;
39404;SDS011;25121;51.090;17.038;2023-05-21T02:37:48;33.97;;;23.98;;
39404;SDS011;25121;51.090;17.038;2023-05-21T02:39:10;31.50;;;23.15;;
39404;SDS011;25121;51.090;17.038;2023-05-21T02:40:32;32.38;;;23.45;;
39404;SDS011;25121;51.090;17.038;2023-05-21T02:41:56;31.85;;;22.02;;
39404;SDS011;25121;51.090;17.038;2023-05-21T02:43:18;35.75;;;23.80;;
39404;SDS011;25121;51.090;17.038;2023-05-21T02:44:40;31.73;;;23.85;;
39404;SDS011;25121;51.090;17.038;2023-05-21T02:46:03;29.75;;;23.60;;
39404;SDS011;25121;51.090;17.038;2023-05-21T02:47:32;34.60;;;23.20;;
39404;SDS011;25121;51.090;17.038;2023-05-21T02:49:01;31.00;;;23.70;;
39404;SDS011;25121;51.090;17.038;2023-05-21T02:50:26;32.08;;;21.95;;
39404;SDS011;25121;51.090;17.038;2023-05-21T02:51:55;32.95;;;22.02;;
39404;SDS011;25121;51.090;17.038;2023-05-21T02:53:18;31.98;;;23.40;;
39404;SDS011;25121;51.090;17.038;2023-05-21T02:54:40;30.65;;;22.55;;
39404;SDS011;25121;51.090;17.038;2023-05-21T02:56:02;31.30;;;23.50;;
39404;SDS011;25121;51.090;17.038;2023-05-21T02:57:26;33.90;;;23.00;;
39404;SDS011;25121;51.090;17.038;2023-05-21T02:58:48;28.85;;;22.08;;
39404;SDS011;25121;51.090;17.038;2023-05-21T03:00:11;31.65;;;22.42;;
39404;SDS011;25121;51.090;17.038;2023-05-21T03:01:36;30.27;;;21.58;;
39404;SDS011;25121;51.090;17.038;2023-05-21T03:02:58;28.10;;;21.38;;
39404;SDS011;25121;51.090;17.038;2023-05-21T03:06:32;35.97;;;23.23;;
39404;SDS011;25121;51.090;17.038;2023-05-21T03:09:51;28.77;;;20.20;;
39404;SDS011;25121;51.090;17.038;2023-05-21T03:11:14;25.40;;;20.08;;
39404;SDS011;25121;51.090;17.038;2023-05-21T03:12:48;30.63;;;21.58;;
39404;SDS011;25121;51.090;17.038;2023-05-21T03:14:10;29.25;;;20.67;;
39404;SDS011;25121;51.090;17.038;2023-05-21T03:15:53;31.67;;;22.08;;
39404;SDS011;25121;51.090;17.038;2023-05-21T03:17:16;28.02;;;20.95;;
39404;SDS011;25121;51.090;17.038;2023-05-21T03:18:38;30.90;;;21.45;;
39404;SDS011;25121;51.090;17.038;2023-05-21T03:20:10;24.30;;;19.70;;
39404;SDS011;25121;51.090;17.038;2023-05-21T03:21:36;31.70;;;22.73;;
39404;SDS011;25121;51.090;17.038;2023-05-21T03:22:58;30.10;;;21.80;;
39404;SDS011;25121;51.090;17.038;2023-05-21T03:24:24;28.55;;;21.25;;
39404;SDS011;25121;51.090;17.038;2023-05-21T03:25:47;29.02;;;21.75;;
39404;SDS011;25121;51.090;17.038;2023-05-21T03:27:10;28.63;;;20.48;;
39404;SDS011;25121;51.090;17.038;2023-05-21T03:28:42;26.77;;;20.55;;
39404;SDS011;25121;51.090;17.038;2023-05-21T03:30:05;28.90;;;21.77;;
39404;SDS011;25121;51.090;17.038;2023-05-21T03:31:35;29.30;;;21.88;;
39404;SDS011;25121;51.090;17.038;2023-05-21T03:33:01;26.25;;;19.67;;
39404;SDS011;25121;51.090;17.038;2023-05-21T03:34:26;26.70;;;21.63;;
39404;SDS011;25121;51.090;17.038;2023-05-21T03:35:48;29.40;;;20.38;;
39404;SDS011;25121;51.090;17.038;2023-05-21T03:37:11;32.17;;;21.10;;
39404;SDS011;25121;51.090;17.038;2023-05-21T03:38:34;24.25;;;19.60;;
39404;SDS011;25121;51.090;17.038;2023-05-21T03:40:04;29.00;;;20.70;;
39404;SDS011;25121;51.090;17.038;2023-05-21T03:41:31;26.08;;;19.88;;
39404;SDS011;25121;51.090;17.038;2023-05-21T03:43:01;26.05;;;19.77;;
39404;SDS011;25121;51.090;17.038;2023-05-21T03:44:25;25.27;;;18.90;;
39404;SDS011;25121;51.090;17.038;2023-05-21T03:45:53;25.80;;;19.23;;
39404;SDS011;25121;51.090;17.038;2023-05-21T03:47:40;24.90;;;18.83;;
39404;SDS011;25121;51.090;17.038;2023-05-21T03:49:09;29.52;;;20.58;;
39404;SDS011;25121;51.090;17.038;2023-05-21T03:50:32;27.63;;;18.88;;
39404;SDS011;25121;51.090;17.038;2023-05-21T03:52:14;29.77;;;19.40;;
39404;SDS011;25121;51.090;17.038;2023-05-21T03:53:54;25.38;;;17.92;;
39404;SDS011;25121;51.090;17.038;2023-05-21T03:55:15;27.10;;;18.63;;
39404;SDS011;25121;51.090;17.038;2023-05-21T03:56:41;26.02;;;19.92;;
39404;SDS011;25121;51.090;17.038;2023-05-21T03:58:20;26.17;;;18.85;;
39404;SDS011;25121;51.090;17.038;2023-05-21T04:01:08;27.50;;;18.20;;
39404;SDS011;25121;51.090;17.038;2023-05-21T04:02:33;24.83;;;18.27;;
39404;SDS011;25121;51.090;17.038;2023-05-21T04:03:55;29.98;;;18.02;;
39404;SDS011;25121;51.090;17.038;2023-05-21T04:05:19;29.05;;;19.02;;
39404;SDS011;25121;51.090;17.038;2023-05-21T04:06:41;25.77;;;18.25;;
39404;SDS011;25121;51.090;17.038;2023-05-21T04:08:04;27.23;;;19.38;;
39404;SDS011;25121;51.090;17.038;2023-05-21T04:09:26;26.60;;;19.48;;
39404;SDS011;25121;51.090;17.038;2023-05-21T04:10:52;25.63;;;18.00;;
39404;SDS011;25121;51.090;17.038;2023-05-21T04:12:21;25.75;;;17.98;;
39404;SDS011;25121;51.090;17.038;2023-05-21T04:13:43;26.80;;;19.00;;
39404;SDS011;25121;51.090;17.038;2023-05-21T04:15:06;25.48;;;18.58;;
39404;SDS011;25121;51.090;17.038;2023-05-21T04:16:29;24.55;;;18.88;;
39404;SDS011;25121;51.090;17.038;2023-05-21T04:17:52;25.30;;;18.15;;
39404;SDS011;25121;51.090;17.038;2023-05-21T04:19:14;26.88;;;19.10;;
39404;SDS011;25121;51.090;17.038;2023-05-21T04:20:38;29.63;;;18.92;;
39404;SDS011;25121;51.090;17.038;2023-05-21T04:22:35;26.15;;;18.02;;
39404;SDS011;25121;51.090;17.038;2023-05-21T04:24:27;22.65;;;17.70;;
39404;SDS011;25121;51.090;17.038;2023-05-21T04:26:09;24.05;;;18.48;;
39404;SDS011;25121;51.090;17.038;2023-05-21T04:27:34;24.90;;;17.85;;
39404;SDS011;25121;51.090;17.038;2023-05-21T04:28:57;23.70;;;17.63;;
39404;SDS011;25121;51.090;17.038;2023-05-21T04:30:26;20.98;;;17.92;;
39404;SDS011;25121;51.090;17.038;2023-05-21T04:31:50;22.83;;;17.80;;
39404;SDS011;25121;51.090;17.038;2023-05-21T04:33:12;24.45;;;18.65;;
39404;SDS011;25121;51.090;17.038;2023-05-21T04:34:37;27.08;;;18.65;;
39404;SDS011;25121;51.090;17.038;2023-05-21T04:36:09;25.77;;;17.88;;
39404;SDS011;25121;51.090;17.038;2023-05-21T04:37:31;27.07;;;18.40;;
39404;SDS011;25121;51.090;17.038;2023-05-21T04:38:54;24.77;;;18.27;;
39404;SDS011;25121;51.090;17.038;2023-05-21T04:40:17;21.58;;;18.10;;
39404;SDS011;25121;51.090;17.038;2023-05-21T04:41:43;21.10;;;17.38;;
39404;SDS011;25121;51.090;17.038;2023-05-21T04:43:07;24.50;;;17.50;;
39404;SDS011;25121;51.090;17.038;2023-05-21T04:44:31;24.02;;;17.33;;
39404;SDS011;25121;51.090;17.038;2023-05-21T04:47:36;20.90;;;16.38;;
39404;SDS011;25121;51.090;17.038;2023-05-21T04:51:38;28.80;;;16.52;;
39404;SDS011;25121;51.090;17.038;2023-05-21T04:53:09;23.98;;;16.85;;
39404;SDS011;25121;51.090;17.038;2023-05-21T04:54:51;20.73;;;15.98;;
39404;SDS011;25121;51.090;17.038;2023-05-21T04:56:25;23.52;;;17.02;;
39404;SDS011;25121;51.090;17.038;2023-05-21T04:57:49;21.20;;;16.75;;
39404;SDS011;25121;51.090;17.038;2023-05-21T05:00:33;22.10;;;15.40;;
39404;SDS011;25121;51.090;17.038;2023-05-21T05:02:00;21.15;;;16.30;;
39404;SDS011;25121;51.090;17.038;2023-05-21T05:03:22;18.38;;;15.55;;
39404;SDS011;25121;51.090;17.038;2023-05-21T05:04:48;21.88;;;15.15;;
39404;SDS011;25121;51.090;17.038;2023-05-21T05:06:11;19.88;;;15.77;;
39404;SDS011;25121;51.090;17.038;2023-05-21T05:07:50;20.10;;;16.50;;
39404;SDS011;25121;51.090;17.038;2023-05-21T05:09:27;22.38;;;14.90;;
39404;SDS011;25121;51.090;17.038;2023-05-21T05:10:59;20.65;;;15.10;;
39404;SDS011;25121;51.090;17.038;2023-05-21T05:12:23;17.60;;;14.25;;
39404;SDS011;25121;51.090;17.038;2023-05-21T05:14:33;21.85;;;15.25;;
39404;SDS011;25121;51.090;17.038;2023-05-21T05:15:55;18.58;;;14.52;;
39404;SDS011;25121;51.090;17.038;2023-05-21T05:17:21;17.98;;;14.63;;
39404;SDS011;25121;51.090;17.038;2023-05-21T05:18:43;20.63;;;13.73;;
39404;SDS011;25121;51.090;17.038;2023-05-21T05:20:06;18.70;;;13.75;;
39404;SDS011;25121;51.090;17.038;2023-05-21T05:21:32;21.70;;;14.55;;
39404;SDS011;25121;51.090;17.038;2023-05-21T05:22:54;21.77;;;13.82;;
39404;SDS011;25121;51.090;17.038;2023-05-21T05:24:16;20.17;;;15.15;;
39404;SDS011;25121;51.090;17.038;2023-05-21T05:25:39;22.13;;;14.23;;
39404;SDS011;25121;51.090;17.038;2023-05-21T05:27:02;20.52;;;15.15;;
39404;SDS011;25121;51.090;17.038;2023-05-21T05:28:24;18.23;;;13.70;;
39404;SDS011;25121;51.090;17.038;2023-05-21T05:30:03;18.17;;;13.55;;
39404;SDS011;25121;51.090;17.038;2023-05-21T05:31:42;17.70;;;14.02;;
39404;SDS011;25121;51.090;17.038;2023-05-21T05:35:55;18.83;;;14.35;;
39404;SDS011;25121;51.090;17.038;2023-05-21T05:37:18;18.05;;;13.55;;
39404;SDS011;25121;51.090;17.038;2023-05-21T05:39:05;16.90;;;13.07;;
39404;SDS011;25121;51.090;17.038;2023-05-21T05:40:38;15.30;;;13.32;;
39404;SDS011;25121;51.090;17.038;2023-05-21T05:46:45;18.70;;;12.30;;
39404;SDS011;25121;51.090;17.038;2023-05-21T05:48:07;15.57;;;12.48;;
39404;SDS011;25121;51.090;17.038;2023-05-21T05:49:29;18.30;;;13.30;;
39404;SDS011;25121;51.090;17.038;2023-05-21T05:50:52;19.33;;;12.50;;
39404;SDS011;25121;51.090;17.038;2023-05-21T05:52:24;15.00;;;12.20;;
39404;SDS011;25121;51.090;17.038;2023-05-21T05:53:47;14.23;;;11.75;;
39404;SDS011;25121;51.090;17.038;2023-05-21T05:55:10;19.92;;;12.52;;
39404;SDS011;25121;51.090;17.038;2023-05-21T05:56:39;14.93;;;12.88;;
39404;SDS011;25121;51.090;17.038;2023-05-21T05:58:04;21.35;;;13.40;;
39404;SDS011;25121;51.090;17.038;2023-05-21T05:59:43;18.92;;;12.32;;
39404;SDS011;25121;51.090;17.038;2023-05-21T06:01:31;17.00;;;11.98;;
39404;SDS011;25121;51.090;17.038;2023-05-21T06:03:03;15.18;;;12.20;;
39404;SDS011;25121;51.090;17.038;2023-05-21T06:04:54;15.50;;;12.05;;
39404;SDS011;25121;51.090;17.038;2023-05-21T06:06:58;16.88;;;12.25;;
39404;SDS011;25121;51.090;17.038;2023-05-21T06:08:22;18.05;;;11.73;;
39404;SDS011;25121;51.090;17.038;2023-05-21T06:11:45;14.38;;;11.55;;
39404;SDS011;25121;51.090;17.038;2023-05-21T06:13:16;17.30;;;11.85;;
39404;SDS011;25121;51.090;17.038;2023-05-21T06:14:48;14.70;;;10.67;;
39404;SDS011;25121;51.090;17.038;2023-05-21T06:16:15;15.35;;;11.15;;
39404;SDS011;25121;51.090;17.038;2023-05-21T06:18:04;17.48;;;10.60;;
39404;SDS011;25121;51.090;17.038;2023-05-21T06:19:36;18.23;;;11.03;;
39404;SDS011;25121;51.090;17.038;2023-05-21T06:21:32;15.73;;;10.55;;
39404;SDS011;25121;51.090;17.038;2023-05-21T06:22:58;12.13;;;10.23;;
39404;SDS011;25121;51.090;17.038;2023-05-21T06:24:23;14.77;;;10.85;;
39404;SDS011;25121;51.090;17.038;2023-05-21T06:25:55;13.00;;;10.38;;
39404;SDS011;25121;51.090;17.038;2023-05-21T06:27:36;12.18;;;9.88;;
39404;SDS011;25121;51.090;17.038;2023-05-21T06:29:09;20.90;;;10.40;;
39404;SDS011;25121;51.090;17.038;2023-05-21T06:30:47;12.60;;;9.90;;
39404;SDS011;25121;51.090;17.038;2023-05-21T06:32:11;14.18;;;10.05;;
39404;SDS011;25121;51.090;17.038;2023-05-21T06:33:40;13.75;;;10.30;;
39404;SDS011;25121;51.090;17.038;2023-05-21T06:35:03;11.00;;;9.32;;
39404;SDS011;25121;51.090;17.038;2023-05-21T06:36:26;13.57;;;9.85;;
39404;SDS011;25121;51.090;17.038;2023-05-21T06:40:31;16.33;;;9.32;;
39404;SDS011;25121;51.090;17.038;2023-05-21T06:41:57;15.43;;;9.43;;
39404;SDS011;25121;51.090;17.038;2023-05-21T06:44:12;13.15;;;9.20;;
39404;SDS011;25121;51.090;17.038;2023-05-21T06:45:52;14.77;;;9.43;;
39404;SDS011;25121;51.090;17.038;2023-05-21T06:47:35;12.23;;;8.57;;
39404;SDS011;25121;51.090;17.038;2023-05-21T06:49:13;14.40;;;9.65;;
39404;SDS011;25121;51.090;17.038;2023-05-21T06:50:52;11.80;;;8.68;;
39404;SDS011;25121;51.090;17.038;2023-05-21T06:52:15;13.57;;;8.77;;
39404;SDS011;25121;51.090;17.038;2023-05-21T06:53:43;10.25;;;8.77;;
39404;SDS011;25121;51.090;17.038;2023-05-21T06:55:05;11.15;;;9.27;;
39404;SDS011;25121;51.090;17.038;2023-05-21T06:56:58;14.13;;;9.18;;
39404;SDS011;25121;51.090;17.038;2023-05-21T06:58:24;12.40;;;9.20;;
39404;SDS011;25121;51.090;17.038;2023-05-21T07:00:00;13.35;;;9.23;;
39404;SDS011;25121;51.090;17.038;2023-05-21T07:01:27;14.30;;;8.65;;
39404;SDS011;25121;51.090;17.038;2023-05-21T07:03:04;11.20;;;8.95;;
39404;SDS011;25121;51.090;17.038;2023-05-21T07:04:27;14.23;;;8.02;;
39404;SDS011;25121;51.090;17.038;2023-05-21T07:05:59;14.50;;;8.15;;
39404;SDS011;25121;51.090;17.038;2023-05-21T07:07:26;14.52;;;7.93;;
39404;SDS011;25121;51.090;17.038;2023-05-21T07:09:06;15.00;;;8.10;;
39404;SDS011;25121;51.090;17.038;2023-05-21T07:10:34;12.93;;;8.35;;
39404;SDS011;25121;51.090;17.038;2023-05-21T07:12:27;16.67;;;9.38;;
39404;SDS011;25121;51.090;17.038;2023-05-21T07:14:00;14.52;;;8.18;;
39404;SDS011;25121;51.090;17.038;2023-05-21T07:15:26;12.30;;;7.55;;
39404;SDS011;25121;51.090;17.038;2023-05-21T07:16:50;9.77;;;7.82;;
39404;SDS011;25121;51.090;17.038;2023-05-21T07:18:13;11.52;;;7.75;;
39404;SDS011;25121;51.090;17.038;2023-05-21T07:19:37;11.63;;;8.20;;
39404;SDS011;25121;51.090;17.038;2023-05-21T07:20:59;10.70;;;7.90;;
39404;SDS011;25121;51.090;17.038;2023-05-21T07:22:30;10.77;;;8.10;;
39404;SDS011;25121;51.090;17.038;2023-05-21T07:24:15;11.10;;;7.25;;
39404;SDS011;25121;51.090;17.038;2023-05-21T07:25:38;11.07;;;7.88;;
39404;SDS011;25121;51.090;17.038;2023-05-21T07:27:33;12.77;;;6.95;;
39404;SDS011;25121;51.090;17.038;2023-05-21T07:28:58;13.73;;;7.35;;
39404;SDS011;25121;51.090;17.038;2023-05-21T07:30:23;12.77;;;7.18;;
39404;SDS011;25121;51.090;17.038;2023-05-21T07:31:45;10.93;;;7.43;;
39404;SDS011;25121;51.090;17.038;2023-05-21T07:33:09;11.77;;;7.85;;
39404;SDS011;25121;51.090;17.038;2023-05-21T07:37:13;7.93;;;7.00;;
39404;SDS011;25121;51.090;17.038;2023-05-21T07:38:38;8.55;;;6.50;;
39404;SDS011;25121;51.090;17.038;2023-05-21T07:40:02;14.20;;;7.00;;
39404;SDS011;25121;51.090;17.038;2023-05-21T07:41:30;10.02;;;6.70;;
39404;SDS011;25121;51.090;17.038;2023-05-21T07:43:00;11.93;;;7.35;;
39404;SDS011;25121;51.090;17.038;2023-05-21T07:44:24;9.13;;;6.93;;
39404;SDS011;25121;51.090;17.038;2023-05-21T07:46:30;9.50;;;6.70;;
39404;SDS011;25121;51.090;17.038;2023-05-21T07:47:51;10.43;;;6.72;;
39404;SDS011;25121;51.090;17.038;2023-05-21T07:49:15;12.68;;;7.25;;
39404;SDS011;25121;51.090;17.038;2023-05-21T07:50:41;9.60;;;6.65;;
39404;SDS011;25121;51.090;17.038;2023-05-21T07:52:06;8.95;;;7.30;;
39404;SDS011;25121;51.090;17.038;2023-05-21T07:53:33;11.48;;;7.13;;
39404;SDS011;25121;51.090;17.038;2023-05-21T07:55:02;10.05;;;6.28;;
39404;SDS011;25121;51.090;17.038;2023-05-21T07:56:28;14.25;;;7.30;;
39404;SDS011;25121;51.090;17.038;2023-05-21T07:57:54;10.27;;;6.78;;
39404;SDS011;25121;51.090;17.038;2023-05-21T07:59:23;9.43;;;6.50;;
39404;SDS011;25121;51.090;17.038;2023-05-21T08:05:06;11.23;;;6.55;;
39404;SDS011;25121;51.090;17.038;2023-05-21T08:06:57;11.00;;;7.60;;
39404;SDS011;25121;51.090;17.038;2023-05-21T08:08:26;9.00;;;6.63;;
39404;SDS011;25121;51.090;17.038;2023-05-21T08:11:59;11.20;;;6.95;;
39404;SDS011;25121;51.090;17.038;2023-05-21T08:13:23;14.10;;;6.93;;
39404;SDS011;25121;51.090;17.038;2023-05-21T08:14:47;13.02;;;7.35;;
39404;SDS011;25121;51.090;17.038;2023-05-21T08:16:14;10.85;;;7.13;;
39404;SDS011;25121;51.090;17.038;2023-05-21T08:17:37;9.93;;;7.15;;
39404;SDS011;25121;51.090;17.038;2023-05-21T08:19:00;9.30;;;6.70;;
39404;SDS011;25121;51.090;17.038;2023-05-21T08:20:22;9.23;;;6.53;;
39404;SDS011;25121;51.090;17.038;2023-05-21T08:21:47;9.73;;;7.15;;
39404;SDS011;25121;51.090;17.038;2023-05-21T08:23:13;7.72;;;6.93;;
39404;SDS011;25121;51.090;17.038;2023-05-21T08:24:41;9.35;;;7.15;;
39404;SDS011;25121;51.090;17.038;2023-05-21T08:26:06;7.82;;;6.22;;
39404;SDS011;25121;51.090;17.038;2023-05-21T08:27:30;10.07;;;6.65;;
39404;SDS011;25121;51.090;17.038;2023-05-21T08:28:53;11.57;;;6.35;;
39404;SDS011;25121;51.090;17.038;2023-05-21T08:30:16;14.90;;;6.97;;
39404;SDS011;25121;51.090;17.038;2023-05-21T08:31:41;10.35;;;6.32;;
39404;SDS011;25121;51.090;17.038;2023-05-21T08:33:27;10.77;;;6.35;;
39404;SDS011;25121;51.090;17.038;2023-05-21T08:35:01;6.97;;;6.28;;
39404;SDS011;25121;51.090;17.038;2023-05-21T08:36:50;11.45;;;6.40;;
39404;SDS011;25121;51.090;17.038;2023-05-21T08:38:35;8.65;;;5.35;;
39404;SDS011;25121;51.090;17.038;2023-05-21T08:40:16;6.75;;;5.50;;
39404;SDS011;25121;51.090;17.038;2023-05-21T08:41:39;8.93;;;5.95;;
39404;SDS011;25121;51.090;17.038;2023-05-21T08:43:09;8.30;;;5.55;;
39404;SDS011;25121;51.090;17.038;2023-05-21T08:44:40;7.47;;;5.28;;
39404;SDS011;25121;51.090;17.038;2023-05-21T08:46:44;9.07;;;5.50;;
39404;SDS011;25121;51.090;17.038;2023-05-21T08:48:10;6.88;;;5.45;;
39404;SDS011;25121;51.090;17.038;2023-05-21T08:49:32;9.23;;;5.10;;
39404;SDS011;25121;51.090;17.038;2023-05-21T08:50:57;8.27;;;5.35;;
39404;SDS011;25121;51.090;17.038;2023-05-21T08:52:26;9.95;;;5.13;;
39404;SDS011;25121;51.090;17.038;2023-05-21T08:53:49;10.70;;;5.18;;
39404;SDS011;25121;51.090;17.038;2023-05-21T08:55:12;6.63;;;4.57;;
39404;SDS011;25121;51.090;17.038;2023-05-21T08:57:15;6.22;;;4.53;;
39404;SDS011;25121;51.090;17.038;2023-05-21T08:58:39;12.55;;;5.70;;
39404;SDS011;25121;51.090;17.038;2023-05-21T09:00:04;8.43;;;4.80;;
39404;SDS011;25121;51.090;17.038;2023-05-21T09:01:31;9.38;;;4.88;;
39404;SDS011;25121;51.090;17.038;2023-05-21T09:03:13;6.55;;;5.22;;
39404;SDS011;25121;51.090;17.038;2023-05-21T09:04:37;11.70;;;4.80;;
39404;SDS011;25121;51.090;17.038;2023-05-21T09:06:00;5.10;;;4.15;;
39404;SDS011;25121;51.090;17.038;2023-05-21T09:07:23;9.77;;;4.57;;
39404;SDS011;25121;51.090;17.038;2023-05-21T09:10:38;5.15;;;4.65;;
39404;SDS011;25121;51.090;17.038;2023-05-21T09:12:02;6.07;;;4.60;;
39404;SDS011;25121;51.090;17.038;2023-05-21T09:13:27;11.07;;;4.80;;
39404;SDS011;25121;51.090;17.038;2023-05-21T09:15:02;5.10;;;4.50;;
39404;SDS011;25121;51.090;17.038;2023-05-21T09:16:28;8.88;;;4.47;;